sensor_id;sensor_type;location;lat;lon;timestamp;pressure;altitude;pressure_sealevel;temperature;humidity
43312;BME280;30041;48.300;16.352;2023-08-20T00:00:11;100130.22;;;25.45;58.37
43312;BME280;30041;48.300;16.352;2023-08-20T00:02:37;100126.47;;;25.46;58.48
43312;BME280;30041;48.300;16.352;2023-08-20T00:05:06;100125.31;;;25.42;58.58
43312;BME280;30041;48.300;16.352;2023-08-20T00:07:32;100126.13;;;25.42;58.80
43312;BME280;30041;48.300;16.352;2023-08-20T00:09:58;100123.19;;;25.44;58.77
43312;BME280;30041;48.300;16.352;2023-08-20T00:12:24;100115.03;;;25.44;58.46
43312;BME280;30041;48.300;16.352;2023-08-20T00:14:58;100120.47;;;25.44;58.67
43312;BME280;30041;48.300;16.352;2023-08-20T00:17:25;100119.13;;;25.46;58.39
43312;BME280;30041;48.300;16.352;2023-08-20T00:19:51;100118.06;;;25.47;58.40
43312;BME280;30041;48.300;16.352;2023-08-20T00:22:17;100113.94;;;25.45;58.43
43312;BME280;30041;48.300;16.352;2023-08-20T00:24:43;100109.63;;;25.44;58.60
43312;BME280;30041;48.300;16.352;2023-08-20T00:27:09;100106.56;;;25.40;58.62
43312;BME280;30041;48.300;16.352;2023-08-20T00:29:34;100119.31;;;25.40;58.40
43312;BME280;30041;48.300;16.352;2023-08-20T00:31:59;100116.84;;;25.38;58.92
43312;BME280;30041;48.300;16.352;2023-08-20T00:34:25;100122.84;;;25.40;58.71
43312;BME280;30041;48.300;16.352;2023-08-20T00:36:50;100127.72;;;25.38;58.80
43312;BME280;30041;48.300;16.352;2023-08-20T00:39:16;100125.28;;;25.37;58.87
43312;BME280;30041;48.300;16.352;2023-08-20T00:41:41;100123.38;;;25.37;58.97
43312;BME280;30041;48.300;16.352;2023-08-20T00:44:07;100129.84;;;25.36;58.83
43312;BME280;30041;48.300;16.352;2023-08-20T00:46:32;100129.84;;;25.36;59.13
43312;BME280;30041;48.300;16.352;2023-08-20T00:48:58;100129.38;;;25.39;58.67
43312;BME280;30041;48.300;16.352;2023-08-20T00:51:24;100132.06;;;25.39;58.74
43312;BME280;30041;48.300;16.352;2023-08-20T00:53:49;100129.38;;;25.39;58.65
43312;BME280;30041;48.300;16.352;2023-08-20T00:56:16;100133.97;;;25.39;58.68
43312;BME280;30041;48.300;16.352;2023-08-20T00:58:42;100136.38;;;25.35;58.92
43312;BME280;30041;48.300;16.352;2023-08-20T01:01:08;100139.81;;;25.31;59.14
43312;BME280;30041;48.300;16.352;2023-08-20T01:03:33;100137.94;;;25.31;59.06
43312;BME280;30041;48.300;16.352;2023-08-20T01:06:12;100133.31;;;25.32;58.94
43312;BME280;30041;48.300;16.352;2023-08-20T01:08:41;100135.22;;;25.31;58.88
43312;BME280;30041;48.300;16.352;2023-08-20T01:11:12;100131.34;;;25.27;59.01
43312;BME280;30041;48.300;16.352;2023-08-20T01:13:41;100137.63;;;25.27;58.92
43312;BME280;30041;48.300;16.352;2023-08-20T01:16:06;100136.53;;;25.29;59.01
43312;BME280;30041;48.300;16.352;2023-08-20T01:18:32;100136.78;;;25.27;58.86
43312;BME280;30041;48.300;16.352;2023-08-20T01:21:02;100147.91;;;25.25;58.92
43312;BME280;30041;48.300;16.352;2023-08-20T01:26:56;100155.19;;;25.25;58.87
43312;BME280;30041;48.300;16.352;2023-08-20T01:29:26;100151.09;;;25.22;58.99
43312;BME280;30041;48.300;16.352;2023-08-20T01:31:53;100154.66;;;25.23;59.00
43312;BME280;30041;48.300;16.352;2023-08-20T01:34:20;100148.16;;;25.24;58.66
43312;BME280;30041;48.300;16.352;2023-08-20T01:36:46;100148.16;;;25.24;58.78
43312;BME280;30041;48.300;16.352;2023-08-20T01:39:11;100148.97;;;25.24;58.68
43312;BME280;30041;48.300;16.352;2023-08-20T01:41:37;100152.00;;;25.28;58.49
43312;BME280;30041;48.300;16.352;2023-08-20T01:44:03;100145.50;;;25.29;58.59
43312;BME280;30041;48.300;16.352;2023-08-20T01:46:29;100147.34;;;25.23;58.50
43312;BME280;30041;48.300;16.352;2023-08-20T01:48:54;100146.81;;;25.26;58.62
43312;BME280;30041;48.300;16.352;2023-08-20T01:51:20;100157.66;;;25.26;58.53
43312;BME280;30041;48.300;16.352;2023-08-20T01:53:45;100153.56;;;25.24;58.75
43312;BME280;30041;48.300;16.352;2023-08-20T01:56:12;100156.53;;;25.22;58.73
43312;BME280;30041;48.300;16.352;2023-08-20T01:58:37;100153.81;;;25.22;58.74
43312;BME280;30041;48.300;16.352;2023-08-20T02:01:03;100155.78;;;25.27;58.49
43312;BME280;30041;48.300;16.352;2023-08-20T02:03:28;100151.94;;;25.23;58.57
43312;BME280;30041;48.300;16.352;2023-08-20T02:05:54;100148.66;;;25.21;58.77
43312;BME280;30041;48.300;16.352;2023-08-20T02:08:19;100150.88;;;25.24;58.69
43312;BME280;30041;48.300;16.352;2023-08-20T02:10:45;100145.69;;;25.22;58.60
43312;BME280;30041;48.300;16.352;2023-08-20T02:13:11;100145.94;;;25.21;58.64
43312;BME280;30041;48.300;16.352;2023-08-20T02:15:36;100148.09;;;25.19;58.72
43312;BME280;30041;48.300;16.352;2023-08-20T02:18:02;100145.38;;;25.19;58.75
43312;BME280;30041;48.300;16.352;2023-08-20T02:20:28;100142.97;;;25.22;58.52
43312;BME280;30041;48.300;16.352;2023-08-20T02:22:53;100149.28;;;25.28;58.28
43312;BME280;30041;48.300;16.352;2023-08-20T02:25:18;100143.06;;;25.27;58.21
43312;BME280;30041;48.300;16.352;2023-08-20T02:27:44;100140.81;;;25.24;58.66
43312;BME280;30041;48.300;16.352;2023-08-20T02:30:10;100134.59;;;25.24;58.42
43312;BME280;30041;48.300;16.352;2023-08-20T02:32:36;100126.69;;;25.22;58.60
43312;BME280;30041;48.300;16.352;2023-08-20T02:35:01;100128.06;;;25.25;58.21
43312;BME280;30041;48.300;16.352;2023-08-20T02:37:27;100138.94;;;25.25;58.61
43312;BME280;30041;48.300;16.352;2023-08-20T02:39:52;100131.06;;;25.23;58.59
43312;BME280;30041;48.300;16.352;2023-08-20T02:42:18;100128.91;;;25.25;58.57
43312;BME280;30041;48.300;16.352;2023-08-20T02:44:43;100128.06;;;25.25;58.42
43312;BME280;30041;48.300;16.352;2023-08-20T02:47:09;100131.94;;;25.29;58.14
43312;BME280;30041;48.300;16.352;2023-08-20T02:49:34;100136.31;;;25.30;58.41
43312;BME280;30041;48.300;16.352;2023-08-20T02:51:59;100141.16;;;25.28;58.27
43312;BME280;30041;48.300;16.352;2023-08-20T02:54:25;100145.44;;;25.24;58.35
43312;BME280;30041;48.300;16.352;2023-08-20T02:56:50;100148.16;;;25.24;58.43
43312;BME280;30041;48.300;16.352;2023-08-20T02:59:16;100155.34;;;25.18;58.53
43312;BME280;30041;48.300;16.352;2023-08-20T03:01:41;100158.06;;;25.18;58.63
43312;BME280;30041;48.300;16.352;2023-08-20T03:04:06;100153.25;;;25.20;58.31
43312;BME280;30041;48.300;16.352;2023-08-20T03:06:32;100148.97;;;25.24;58.50
43312;BME280;30041;48.300;16.352;2023-08-20T03:08:57;100145.69;;;25.22;58.44
43312;BME280;30041;48.300;16.352;2023-08-20T03:11:23;100140.81;;;25.24;58.25
43312;BME280;30041;48.300;16.352;2023-08-20T03:13:48;100140.59;;;25.26;58.29
43312;BME280;30041;48.300;16.352;2023-08-20T03:16:13;100149.28;;;25.28;58.25
43312;BME280;30041;48.300;16.352;2023-08-20T03:18:39;100134.91;;;25.27;57.72
43312;BME280;30041;48.300;16.352;2023-08-20T03:21:04;100129.97;;;25.24;58.10
43312;BME280;30041;48.300;16.352;2023-08-20T03:23:30;100135.41;;;25.24;58.31
43312;BME280;30041;48.300;16.352;2023-08-20T03:25:58;100124.88;;;25.28;58.07
43312;BME280;30041;48.300;16.352;2023-08-20T03:28:23;100132.44;;;25.26;58.14
43312;BME280;30041;48.300;16.352;2023-08-20T03:30:49;100136.97;;;25.20;58.33
43312;BME280;30041;48.300;16.352;2023-08-20T03:33:14;100138.63;;;25.21;58.29
43312;BME280;30041;48.300;16.352;2023-08-20T03:35:39;100144.78;;;25.17;58.46
43312;BME280;30041;48.300;16.352;2023-08-20T03:38:05;100143.88;;;25.11;58.45
43312;BME280;30041;48.300;16.352;2023-08-20T03:40:30;100156.09;;;25.14;58.46
43312;BME280;30041;48.300;16.352;2023-08-20T03:42:56;100149.94;;;25.18;58.21
43312;BME280;30041;48.300;16.352;2023-08-20T03:45:21;100151.00;;;25.17;58.24
43312;BME280;30041;48.300;16.352;2023-08-20T03:47:47;100153.38;;;25.14;58.23
43312;BME280;30041;48.300;16.352;2023-08-20T03:50:12;100152.28;;;25.10;58.40
43312;BME280;30041;48.300;16.352;2023-08-20T03:52:38;100162.59;;;25.13;58.42
43312;BME280;30041;48.300;16.352;2023-08-20T03:55:03;100162.38;;;25.14;58.62
43312;BME280;30041;48.300;16.352;2023-08-20T03:57:29;100157.75;;;25.15;58.70
43312;BME280;30041;48.300;16.352;2023-08-20T03:59:54;100152.34;;;25.15;58.42
43312;BME280;30041;48.300;16.352;2023-08-20T04:02:20;100156.44;;;25.17;58.42
43312;BME280;30041;48.300;16.352;2023-08-20T04:04:45;100153.91;;;25.11;58.76
43312;BME280;30041;48.300;16.352;2023-08-20T04:07:11;100152.50;;;25.08;58.68
43312;BME280;30041;48.300;16.352;2023-08-20T04:09:36;100149.22;;;25.06;58.86
43312;BME280;30041;48.300;16.352;2023-08-20T04:12:03;100155.69;;;25.05;58.84
43312;BME280;30041;48.300;16.352;2023-08-20T04:14:28;100160.88;;;25.06;58.65
43312;BME280;30041;48.300;16.352;2023-08-20T04:16:54;100156.78;;;25.04;58.73
43312;BME280;30041;48.300;16.352;2023-08-20T04:19:20;100156.22;;;25.02;58.56
43312;BME280;30041;48.300;16.352;2023-08-20T04:21:45;100164.91;;;25.04;58.45
43312;BME280;30041;48.300;16.352;2023-08-20T04:24:10;100166.25;;;25.01;58.35
43312;BME280;30041;48.300;16.352;2023-08-20T04:26:36;100172.72;;;25.00;58.74
43312;BME280;30041;48.300;16.352;2023-08-20T04:29:01;100176.28;;;25.01;58.55
43312;BME280;30041;48.300;16.352;2023-08-20T04:31:27;100176.50;;;24.99;58.62
43312;BME280;30041;48.300;16.352;2023-08-20T04:33:52;100175.53;;;25.05;58.56
43312;BME280;30041;48.300;16.352;2023-08-20T04:36:18;100180.09;;;25.05;58.31
43312;BME280;30041;48.300;16.352;2023-08-20T04:38:43;100180.31;;;24.81;59.18
43312;BME280;30041;48.300;16.352;2023-08-20T04:41:09;100190.06;;;24.65;59.78
43312;BME280;30041;48.300;16.352;2023-08-20T04:43:34;100194.84;;;24.58;60.11
43312;BME280;30041;48.300;16.352;2023-08-20T04:46:01;100188.41;;;24.48;60.24
43312;BME280;30041;48.300;16.352;2023-08-20T04:48:27;100195.00;;;24.40;60.51
43312;BME280;30041;48.300;16.352;2023-08-20T04:50:52;100188.19;;;24.37;60.19
43312;BME280;30041;48.300;16.352;2023-08-20T04:53:18;100190.09;;;24.37;60.49
43312;BME280;30041;48.300;16.352;2023-08-20T04:55:43;100191.31;;;24.29;60.68
43312;BME280;30041;48.300;16.352;2023-08-20T04:58:09;100194.50;;;24.26;60.56
43312;BME280;30041;48.300;16.352;2023-08-20T05:00:34;100198.44;;;24.18;60.94
43312;BME280;30041;48.300;16.352;2023-08-20T05:02:59;100202.19;;;24.17;61.02
43312;BME280;30041;48.300;16.352;2023-08-20T05:05:25;100198.56;;;24.12;61.00
43312;BME280;30041;48.300;16.352;2023-08-20T05:07:50;100192.44;;;24.16;60.96
43312;BME280;30041;48.300;16.352;2023-08-20T05:10:16;100203.25;;;24.16;61.74
43312;BME280;30041;48.300;16.352;2023-08-20T05:12:41;100200.19;;;24.13;61.70
43312;BME280;30041;48.300;16.352;2023-08-20T05:15:07;100205.03;;;24.11;61.65
43312;BME280;30041;48.300;16.352;2023-08-20T05:17:33;100198.81;;;24.10;61.43
43312;BME280;30041;48.300;16.352;2023-08-20T05:19:58;100204.13;;;24.05;61.58
43312;BME280;30041;48.300;16.352;2023-08-20T05:22:24;100210.59;;;24.04;61.88
43312;BME280;30041;48.300;16.352;2023-08-20T05:24:49;100213.66;;;24.08;61.73
43312;BME280;30041;48.300;16.352;2023-08-20T05:27:16;100208.97;;;24.03;61.71
43312;BME280;30041;48.300;16.352;2023-08-20T05:29:41;100215.78;;;24.06;62.08
43312;BME280;30041;48.300;16.352;2023-08-20T05:32:07;100223.31;;;24.03;62.21
43312;BME280;30041;48.300;16.352;2023-08-20T05:34:33;100219.78;;;24.03;62.25
43312;BME280;30041;48.300;16.352;2023-08-20T05:36:59;100224.72;;;24.06;61.91
43312;BME280;30041;48.300;16.352;2023-08-20T05:39:25;100224.72;;;24.06;62.38
43312;BME280;30041;48.300;16.352;2023-08-20T05:41:50;100215.28;;;24.09;61.83
43312;BME280;30041;48.300;16.352;2023-08-20T05:44:16;100224.63;;;24.01;62.25
43312;BME280;30041;48.300;16.352;2023-08-20T05:46:42;100220.13;;;24.07;62.17
43312;BME280;30041;48.300;16.352;2023-08-20T05:49:08;100226.13;;;24.09;62.02
43312;BME280;30041;48.300;16.352;2023-08-20T05:51:34;100224.56;;;24.13;61.97
43312;BME280;30041;48.300;16.352;2023-08-20T05:53:59;100229.16;;;24.12;61.93
43312;BME280;30041;48.300;16.352;2023-08-20T05:56:25;100231.66;;;24.14;61.84
43312;BME280;30041;48.300;16.352;2023-08-20T05:58:50;100232.22;;;24.16;62.01
43312;BME280;30041;48.300;16.352;2023-08-20T06:01:16;100236.94;;;24.20;62.23
43312;BME280;30041;48.300;16.352;2023-08-20T06:03:41;100239.06;;;24.18;62.46
43312;BME280;30041;48.300;16.352;2023-08-20T06:06:07;100237.16;;;24.19;62.25
43312;BME280;30041;48.300;16.352;2023-08-20T06:08:32;100237.38;;;24.17;62.59
43312;BME280;30041;48.300;16.352;2023-08-20T06:10:58;100244.69;;;24.17;62.64
43312;BME280;30041;48.300;16.352;2023-08-20T06:13:23;100241.19;;;24.16;62.45
43312;BME280;30041;48.300;16.352;2023-08-20T06:15:49;100241.75;;;24.18;62.72
43312;BME280;30041;48.300;16.352;2023-08-20T06:18:14;100241.06;;;24.11;62.41
43312;BME280;30041;48.300;16.352;2023-08-20T06:20:41;100243.31;;;24.14;62.37
43312;BME280;30041;48.300;16.352;2023-08-20T06:23:06;100249.28;;;24.16;62.80
43312;BME280;30041;48.300;16.352;2023-08-20T06:25:31;100243.63;;;24.18;62.91
43312;BME280;30041;48.300;16.352;2023-08-20T06:27:57;100245.97;;;24.26;62.71
43312;BME280;30041;48.300;16.352;2023-08-20T06:30:22;100236.19;;;24.25;62.94
43312;BME280;30041;48.300;16.352;2023-08-20T06:32:48;100239.81;;;24.31;62.91
43312;BME280;30041;48.300;16.352;2023-08-20T06:35:13;100240.88;;;24.30;62.53
43312;BME280;30041;48.300;16.352;2023-08-20T06:37:39;100238.19;;;24.30;62.62
43312;BME280;30041;48.300;16.352;2023-08-20T06:40:06;100230.88;;;24.30;62.44
43312;BME280;30041;48.300;16.352;2023-08-20T06:42:32;100243.09;;;24.33;62.66
43312;BME280;30041;48.300;16.352;2023-08-20T06:44:57;100237.22;;;24.36;62.68
43312;BME280;30041;48.300;16.352;2023-08-20T06:47:22;100231.81;;;24.36;62.73
43312;BME280;30041;48.300;16.352;2023-08-20T06:49:49;100224.56;;;24.41;62.23
43312;BME280;30041;48.300;16.352;2023-08-20T06:52:15;100232.13;;;24.39;62.75
43312;BME280;30041;48.300;16.352;2023-08-20T06:54:40;100234.34;;;24.42;62.63
43312;BME280;30041;48.300;16.352;2023-08-20T06:57:06;100237.03;;;24.42;62.47
43312;BME280;30041;48.300;16.352;2023-08-20T06:59:31;100236.94;;;24.49;62.32
43312;BME280;30041;48.300;16.352;2023-08-20T07:01:56;100238.34;;;24.52;62.33
43312;BME280;30041;48.300;16.352;2023-08-20T07:04:22;100234.31;;;24.54;62.53
43312;BME280;30041;48.300;16.352;2023-08-20T07:06:47;100236.69;;;24.51;62.64
43312;BME280;30041;48.300;16.352;2023-08-20T07:09:13;100243.28;;;24.55;62.19
43312;BME280;30041;48.300;16.352;2023-08-20T07:11:39;100236.53;;;24.57;62.58
43312;BME280;30041;48.300;16.352;2023-08-20T07:14:04;100245.25;;;24.59;62.56
43312;BME280;30041;48.300;16.352;2023-08-20T07:16:30;100239.84;;;24.59;62.63
43312;BME280;30041;48.300;16.352;2023-08-20T07:18:56;100251.25;;;24.61;62.54
43312;BME280;30041;48.300;16.352;2023-08-20T07:21:22;100251.59;;;24.65;62.57
43312;BME280;30041;48.300;16.352;2023-08-20T07:23:47;100253.22;;;24.66;62.49
43312;BME280;30041;48.300;16.352;2023-08-20T07:26:13;100256.53;;;24.68;62.47
43312;BME280;30041;48.300;16.352;2023-08-20T07:28:38;100256.59;;;24.73;62.22
43312;BME280;30041;48.300;16.352;2023-08-20T07:31:04;100254.25;;;24.77;62.01
43312;BME280;30041;48.300;16.352;2023-08-20T07:33:29;100248.81;;;24.77;62.00
43312;BME280;30041;48.300;16.352;2023-08-20T07:35:55;100258.84;;;24.76;62.01
43312;BME280;30041;48.300;16.352;2023-08-20T07:38:20;100260.72;;;24.76;61.92
43312;BME280;30041;48.300;16.352;2023-08-20T07:40:46;100264.84;;;24.78;62.00
43312;BME280;30041;48.300;16.352;2023-08-20T07:43:11;100259.41;;;24.78;61.72
43312;BME280;30041;48.300;16.352;2023-08-20T07:45:37;100264.00;;;24.78;62.22
43312;BME280;30041;48.300;16.352;2023-08-20T07:48:02;100269.19;;;24.79;61.98
43312;BME280;30041;48.300;16.352;2023-08-20T07:50:28;100268.09;;;24.80;62.14
43312;BME280;30041;48.300;16.352;2023-08-20T07:52:53;100265.16;;;24.82;61.84
43312;BME280;30041;48.300;16.352;2023-08-20T07:55:19;100265.50;;;24.85;61.93
43312;BME280;30041;48.300;16.352;2023-08-20T07:57:44;100271.75;;;24.86;61.89
43312;BME280;30041;48.300;16.352;2023-08-20T08:00:10;100268.22;;;24.85;61.94
43312;BME280;30041;48.300;16.352;2023-08-20T08:02:36;100264.69;;;24.85;61.97
43312;BME280;30041;48.300;16.352;2023-08-20T08:05:01;100263.59;;;24.86;62.12
43312;BME280;30041;48.300;16.352;2023-08-20T08:07:27;100266.56;;;24.84;62.17
43312;BME280;30041;48.300;16.352;2023-08-20T08:09:52;100262.22;;;24.83;62.09
43312;BME280;30041;48.300;16.352;2023-08-20T08:12:18;100261.13;;;24.84;62.02
43312;BME280;30041;48.300;16.352;2023-08-20T08:14:43;100260.91;;;24.86;61.64
43312;BME280;30041;48.300;16.352;2023-08-20T08:17:09;100249.25;;;24.85;61.72
43312;BME280;30041;48.300;16.352;2023-08-20T08:19:34;100256.78;;;24.83;61.49
43312;BME280;30041;48.300;16.352;2023-08-20T08:22:00;100259.81;;;24.87;61.71
43312;BME280;30041;48.300;16.352;2023-08-20T08:24:25;100262.53;;;24.87;61.65
43312;BME280;30041;48.300;16.352;2023-08-20T08:26:51;100264.84;;;24.95;61.54
43312;BME280;30041;48.300;16.352;2023-08-20T08:29:17;100266.00;;;24.99;61.33
43312;BME280;30041;48.300;16.352;2023-08-20T08:31:43;100267.31;;;24.97;61.41
43312;BME280;30041;48.300;16.352;2023-08-20T08:34:08;100265.94;;;24.94;61.42
43312;BME280;30041;48.300;16.352;2023-08-20T08:36:34;100261.81;;;24.92;61.49
43312;BME280;30041;48.300;16.352;2023-08-20T08:38:59;100268.06;;;24.92;61.31
43312;BME280;30041;48.300;16.352;2023-08-20T08:41:26;100258.53;;;24.90;61.41
43312;BME280;30041;48.300;16.352;2023-08-20T08:43:55;100264.75;;;24.90;61.47
43312;BME280;30041;48.300;16.352;2023-08-20T08:46:22;100268.28;;;24.91;61.60
43312;BME280;30041;48.300;16.352;2023-08-20T08:48:49;100276.44;;;24.91;61.19
43312;BME280;30041;48.300;16.352;2023-08-20T08:51:14;100276.19;;;24.92;61.19
43312;BME280;30041;48.300;16.352;2023-08-20T08:53:42;100272.09;;;24.90;61.27
43312;BME280;30041;48.300;16.352;2023-08-20T08:56:08;100272.41;;;24.93;61.06
43312;BME280;30041;48.300;16.352;2023-08-20T08:58:33;100278.09;;;24.92;61.16
43312;BME280;30041;48.300;16.352;2023-08-20T09:00:59;100271.59;;;24.93;60.94
43312;BME280;30041;48.300;16.352;2023-08-20T09:03:25;100271.00;;;24.91;61.08
43312;BME280;30041;48.300;16.352;2023-08-20T09:06:01;100266.41;;;24.91;61.05
43312;BME280;30041;48.300;16.352;2023-08-20T09:08:28;100276.44;;;24.91;61.01
43312;BME280;30041;48.300;16.352;2023-08-20T09:10:55;100278.09;;;24.92;60.95
43312;BME280;30041;48.300;16.352;2023-08-20T09:13:26;100270.19;;;24.90;61.09
43312;BME280;30041;48.300;16.352;2023-08-20T09:15:57;100265.81;;;24.89;60.98
43312;BME280;30041;48.300;16.352;2023-08-20T09:18:22;100271.59;;;24.93;60.85
43312;BME280;30041;48.300;16.352;2023-08-20T09:20:48;100272.41;;;24.93;61.13
43312;BME280;30041;48.300;16.352;2023-08-20T09:23:14;100270.19;;;24.90;60.89
43312;BME280;30041;48.300;16.352;2023-08-20T09:25:41;100269.09;;;24.91;60.74
43312;BME280;30041;48.300;16.352;2023-08-20T09:28:07;100274.88;;;24.95;60.67
43312;BME280;30041;48.300;16.352;2023-08-20T09:30:33;100271.00;;;24.91;60.61
43312;BME280;30041;48.300;16.352;2023-08-20T09:33:10;100268.06;;;24.92;60.71
43312;BME280;30041;48.300;16.352;2023-08-20T09:35:36;100270.78;;;24.92;60.66
43312;BME280;30041;48.300;16.352;2023-08-20T09:38:05;100273.47;;;24.92;60.57
43312;BME280;30041;48.300;16.352;2023-08-20T09:40:31;100262.38;;;24.94;60.51
43312;BME280;30041;48.300;16.352;2023-08-20T09:42:57;100263.22;;;24.94;60.80
43312;BME280;30041;48.300;16.352;2023-08-20T09:45:28;100261.91;;;24.97;60.66
43312;BME280;30041;48.300;16.352;2023-08-20T09:47:59;100255.38;;;24.98;60.54
43312;BME280;30041;48.300;16.352;2023-08-20T09:50:26;100259.41;;;24.95;60.59
43312;BME280;30041;48.300;16.352;2023-08-20T09:53:06;100254.56;;;24.97;60.28
43312;BME280;30041;48.300;16.352;2023-08-20T09:55:35;100257.63;;;25.01;60.30
43312;BME280;30041;48.300;16.352;2023-08-20T09:58:04;100255.97;;;25.00;60.24
43312;BME280;30041;48.300;16.352;2023-08-20T10:00:31;100251.88;;;24.97;60.27
43312;BME280;30041;48.300;16.352;2023-08-20T10:02:57;100252.69;;;24.98;60.46
43312;BME280;30041;48.300;16.352;2023-08-20T10:05:24;100251.88;;;24.97;60.27
43312;BME280;30041;48.300;16.352;2023-08-20T10:07:50;100247.25;;;24.98;60.15
43312;BME280;30041;48.300;16.352;2023-08-20T10:10:15;100245.94;;;25.00;60.17
43312;BME280;30041;48.300;16.352;2023-08-20T10:12:41;100250.81;;;24.98;60.14
43312;BME280;30041;48.300;16.352;2023-08-20T10:15:08;100243.72;;;24.97;60.42
43312;BME280;30041;48.300;16.352;2023-08-20T10:17:34;100249.72;;;24.99;60.00
43312;BME280;30041;48.300;16.352;2023-08-20T10:20:03;100249.22;;;25.02;60.10
43312;BME280;30041;48.300;16.352;2023-08-20T10:22:39;100239.22;;;25.03;60.02
43312;BME280;30041;48.300;16.352;2023-08-20T10:25:12;100249.50;;;25.01;60.02
43312;BME280;30041;48.300;16.352;2023-08-20T10:27:40;100237.06;;;25.05;59.96
43312;BME280;30041;48.300;16.352;2023-08-20T10:30:17;100237.31;;;25.03;59.90
43312;BME280;30041;48.300;16.352;2023-08-20T10:32:50;100233.47;;;24.99;59.98
43312;BME280;30041;48.300;16.352;2023-08-20T10:38:11;100235.09;;;25.00;59.96
43312;BME280;30041;48.300;16.352;2023-08-20T10:40:56;100231.31;;;25.01;59.89
43312;BME280;30041;48.300;16.352;2023-08-20T10:43:29;100236.50;;;25.03;59.88
43312;BME280;30041;48.300;16.352;2023-08-20T10:46:18;100235.66;;;25.02;59.82
43312;BME280;30041;48.300;16.352;2023-08-20T10:48:57;100227.53;;;25.02;59.76
43312;BME280;30041;48.300;16.352;2023-08-20T10:51:27;100226.47;;;25.03;59.77
43312;BME280;30041;48.300;16.352;2023-08-20T10:56:57;100229.19;;;25.03;59.70
43312;BME280;30041;48.300;16.352;2023-08-20T10:59:26;100228.91;;;25.05;59.71
43312;BME280;30041;48.300;16.352;2023-08-20T11:01:54;100229.19;;;25.03;59.84
43312;BME280;30041;48.300;16.352;2023-08-20T11:04:21;100227.53;;;25.02;60.05
43312;BME280;30041;48.300;16.352;2023-08-20T11:06:51;100226.22;;;25.05;59.63
43312;BME280;30041;48.300;16.352;2023-08-20T11:09:17;100223.50;;;25.05;59.49
43312;BME280;30041;48.300;16.352;2023-08-20T11:11:43;100213.16;;;25.02;60.01
43312;BME280;30041;48.300;16.352;2023-08-20T11:14:19;100217.25;;;25.04;59.59
43312;BME280;30041;48.300;16.352;2023-08-20T11:16:45;100205.38;;;25.05;59.78
43312;BME280;30041;48.300;16.352;2023-08-20T11:19:11;100211.38;;;25.08;59.79
43312;BME280;30041;48.300;16.352;2023-08-20T11:21:41;100210.84;;;25.11;59.63
43312;BME280;30041;48.300;16.352;2023-08-20T11:24:08;100211.38;;;25.08;59.47
43312;BME280;30041;48.300;16.352;2023-08-20T11:26:39;100204.84;;;25.09;59.53
43312;BME280;30041;48.300;16.352;2023-08-20T11:29:15;100203.88;;;25.15;59.20
43312;BME280;30041;48.300;16.352;2023-08-20T11:31:41;100202.22;;;25.14;59.32
43312;BME280;30041;48.300;16.352;2023-08-20T11:34:07;100198.91;;;25.12;59.53
43312;BME280;30041;48.300;16.352;2023-08-20T11:36:32;100193.78;;;25.10;59.34
43312;BME280;30041;48.300;16.352;2023-08-20T11:38:58;100205.44;;;25.11;59.21
43312;BME280;30041;48.300;16.352;2023-08-20T11:41:24;100201.91;;;25.10;59.41
43312;BME280;30041;48.300;16.352;2023-08-20T11:43:51;100195.97;;;25.13;59.28
43312;BME280;30041;48.300;16.352;2023-08-20T11:46:19;100195.97;;;25.13;59.22
43312;BME280;30041;48.300;16.352;2023-08-20T11:49:03;100198.44;;;25.15;59.16
43312;BME280;30041;48.300;16.352;2023-08-20T11:51:32;100197.63;;;25.14;58.84
43312;BME280;30041;48.300;16.352;2023-08-20T11:54:00;100202.78;;;25.16;59.16
43312;BME280;30041;48.300;16.352;2023-08-20T11:56:26;100201.97;;;25.15;59.03
43312;BME280;30041;48.300;16.352;2023-08-20T11:58:52;100200.59;;;25.13;59.25
43312;BME280;30041;48.300;16.352;2023-08-20T12:01:18;100196.78;;;25.14;59.19
43312;BME280;30041;48.300;16.352;2023-08-20T12:03:44;100191.94;;;25.16;59.18
43312;BME280;30041;48.300;16.352;2023-08-20T12:06:20;100191.94;;;25.16;59.10
43312;BME280;30041;48.300;16.352;2023-08-20T12:08:46;100194.19;;;25.19;59.24
43312;BME280;30041;48.300;16.352;2023-08-20T12:11:12;100184.16;;;25.19;59.00
43312;BME280;30041;48.300;16.352;2023-08-20T12:13:38;100193.13;;;25.20;59.13
43312;BME280;30041;48.300;16.352;2023-08-20T12:16:04;100188.25;;;25.22;58.83
43312;BME280;30041;48.300;16.352;2023-08-20T12:18:31;100182.84;;;25.22;58.85
43312;BME280;30041;48.300;16.352;2023-08-20T12:20:56;100183.66;;;25.22;58.90
43312;BME280;30041;48.300;16.352;2023-08-20T12:23:22;100179.56;;;25.20;58.83
43312;BME280;30041;48.300;16.352;2023-08-20T12:25:50;100180.38;;;25.20;58.85
43312;BME280;30041;48.300;16.352;2023-08-20T12:28:16;100180.13;;;25.22;58.63
43312;BME280;30041;48.300;16.352;2023-08-20T12:30:42;100177.13;;;25.40;58.26
43312;BME280;30041;48.300;16.352;2023-08-20T12:33:07;100174.38;;;25.57;57.76
43312;BME280;30041;48.300;16.352;2023-08-20T12:35:33;100172.59;;;25.68;57.39
43312;BME280;30041;48.300;16.352;2023-08-20T12:37:58;100173.22;;;25.75;57.23
43312;BME280;30041;48.300;16.352;2023-08-20T12:40:24;100166.22;;;25.79;56.79
43312;BME280;30041;48.300;16.352;2023-08-20T12:42:49;100163.56;;;25.84;56.80
43312;BME280;30041;48.300;16.352;2023-08-20T12:45:15;100165.78;;;25.87;56.95